Tropical Cyclones
[Index]
Main Index Home Page Stock Weather Photos Extreme Storms Discussion Storm News and Storm Chasing Reports Tropical Cyclones / Hurricanes / Typhoons Weather Data and Links Wild Fires / Bushfires Weather Observation Techniques Weather Picture Catalogue Tornado Pictures and Reports Stock Video Footage and DVDs for sale
Season 1999-2000 Tropical Cyclone NORMAN Track Map
Season 1999-2000 Summaries: [BoM-AU] [JTWC-AU] [JTWC-SIO] [JTWC-SPAC] [JTWC-SH]
<<- Previous TC | BoM 1999-2000 Season | Next TC ->>

click for intensity scale information  Lat/long Grid: Show Hide

 Date Labels: Show Hide

Bureau of Meteorology Tropical Cyclone Data

Name: NORMAN
Number: 836 / 199900_07

28 Feb 2000 22:00 UTC to 10 Mar 2000 04:00 UTC

    date/time    lat    long    hPa   cat  kts
2000-02-28 22   17.3   123.0   1000         27          
2000-02-29 04   17.5   122.2   1000         27          
2000-02-29 10   17.8   120.6    995    1    35          
2000-02-29 16   18.2   119.0    990    1    41          
2000-02-29 22   18.6   117.8    985    2    49          
2000-03-01 04   18.6   116.8    980    2    54          
2000-03-01 10   18.7   115.8    975    2    60          
2000-03-01 16   18.6   114.9    965    3    70          
2000-03-01 22   18.7   113.8    960    3    76          
2000-03-02 04   18.9   112.8    955    4    80          
2000-03-02 10   19.2   111.5    950    4    84          
2000-03-02 16   19.5   109.9    940    4    93          
2000-03-02 22   19.7   108.2    930    4    101          
2000-03-03 04   19.7   106.9    950    4    84          
2000-03-03 10   20.0   105.0    965    3    70          
2000-03-03 16   20.0   103.0    965    3    70          
2000-03-03 22   20.3   101.2    965    3    70          
2000-03-04 04   20.4    99.3    975    2    60          
2000-03-04 10   20.4    97.8    980    2    54          
2000-03-04 16   20.4    96.6    980    2    54          
2000-03-04 22   20.3    95.4    980    2    54          
2000-03-05 04   20.4    94.6    980    2    54          
2000-03-05 10   20.6    93.9    980    2    54          
2000-03-05 16   20.6    93.3    980    2    54          
2000-03-05 22   20.7    92.8    980    2    54          
2000-03-06 04   20.8    92.2    980    2    54          
2000-03-06 10   21.3    92.0    980    2    54          
2000-03-06 16   21.8    91.9    980    2    54          
2000-03-06 22   22.5    91.5    985    2    49          
2000-03-07 04   23.1    91.6    985    2    49          
2000-03-07 10   23.7    91.8    985    2    49          
2000-03-07 16   23.8    92.0    990    1    41          
2000-03-07 22   23.9    92.2    995    1    35          
2000-03-08 04   24.0    92.5    995    1    35          
2000-03-08 10   23.9    92.8    995    1    35          
2000-03-08 16   23.8    92.6   1000         27          
2000-03-08 22   23.7    92.3   1000         27          
2000-03-09 04   23.7    91.9   1000         27          
2000-03-09 10   23.5    90.5   1000         27          
2000-03-09 16   23.2    89.8   1000         27          
2000-03-09 22   23.0    88.2   1005         19          
2000-03-10 04   22.8    87.8   1005         19          
Winds are 10-min average.

Tropical cyclone tracks developed by Michael Bath using data from the Bureau of Meteorology and Google Maps.


[Australian Severe Weather index] [Copyright Notice] [Email Contacts] [Search This Site] [Privacy Policy]
Document: tropical_cyclone_norman.htm Updated: 30 May 2013